Time;durP1;ratioP1;P1;durP2;ratioP2;P2;SDS_P1;SDS_P2;PMS_P1;PMS_P2;Temp;Humidity;BMP_temperature;BMP_pressure;BME280_temperature;BME280_humidity;BME280_pressure;Samples;Min_cycle;Max_cycle;Signal;HPM_P1;HPM_P2
2021/03/13 00:01:05;;;;;;;1.43;0.40;;;-0.40;99.90;;;;;;6257074;28;20226;-69
2021/03/13 00:04:08;;;;;;;1.77;0.50;;;-0.40;99.90;;;;;;6245782;28;20309;-69
2021/03/13 00:07:10;;;;;;;1.27;0.40;;;-0.40;99.90;;;;;;6281903;28;20297;-69
2021/03/13 00:10:12;;;;;;;0.70;0.57;;;-0.40;99.90;;;;;;6282365;28;20222;-69
2021/03/13 00:13:14;;;;;;;1.13;0.50;;;-0.40;99.90;;;;;;6246411;28;20375;-69
2021/03/13 00:16:15;;;;;;;1.80;0.40;;;-0.40;99.90;;;;;;6280959;28;20260;-69
2021/03/13 00:19:17;;;;;;;1.80;0.57;;;-0.50;99.90;;;;;;6282177;28;20230;-69
2021/03/13 00:22:19;;;;;;;0.87;0.50;;;-0.50;99.90;;;;;;6264722;28;20228;-69
2021/03/13 00:25:23;;;;;;;0.73;0.50;;;-0.50;99.90;;;;;;6263071;28;20241;-69
2021/03/13 00:28:24;;;;;;;0.30;0.30;;;-0.50;99.90;;;;;;6281682;28;20226;-69
2021/03/13 00:31:26;;;;;;;0.50;0.40;;;-0.60;99.90;;;;;;6254682;28;20639;-69
2021/03/13 00:34:28;;;;;;;1.97;0.90;;;-0.60;99.90;;;;;;6253897;28;20577;-69
2021/03/13 00:37:30;;;;;;;1.10;0.70;;;-0.60;99.90;;;;;;6244310;28;20305;-69
2021/03/13 00:40:34;;;;;;;0.93;0.30;;;-0.60;99.90;;;;;;6230203;28;20242;-69
2021/03/13 00:43:36;;;;;;;3.10;0.63;;;-0.60;99.90;;;;;;6231063;28;20220;-69
2021/03/13 00:46:41;;;;;;;0.90;0.60;;;-0.60;99.90;;;;;;6231551;28;20242;-69
2021/03/13 00:49:43;;;;;;;3.13;0.60;;;-0.60;99.90;;;;;;6229865;28;20227;-69
2021/03/13 00:52:45;;;;;;;5.43;0.70;;;-0.70;99.90;;;;;;6230848;28;20235;-69
2021/03/13 00:55:47;;;;;;;2.10;0.40;;;-0.70;99.90;;;;;;6230033;28;20231;-69
2021/03/13 00:58:57;;;;;;;1.33;0.50;;;-0.70;99.90;;;;;;6230059;28;20251;-69
2021/03/13 01:01:59;;;;;;;0.80;0.67;;;-0.70;99.90;;;;;;6229861;28;20243;-69
2021/03/13 01:05:02;;;;;;;0.67;0.50;;;-0.70;99.90;;;;;;6229553;28;20685;-69
2021/03/13 01:08:07;;;;;;;0.60;0.40;;;-0.70;99.90;;;;;;6230632;28;20230;-69
2021/03/13 01:11:25;;;;;;;1.40;1.00;;;-0.70;99.90;;;;;;6229559;28;20232;-69
2021/03/13 01:14:34;;;;;;;0.70;0.40;;;-0.70;99.90;;;;;;6230862;28;20310;-69
2021/03/13 01:17:36;;;;;;;2.20;0.70;;;-0.80;99.90;;;;;;6232079;28;20230;-69
2021/03/13 01:20:39;;;;;;;1.10;0.60;;;-0.80;99.90;;;;;;6229524;28;20760;-69
2021/03/13 01:23:41;;;;;;;1.27;0.60;;;-0.80;99.90;;;;;;6230341;28;20224;-69
2021/03/13 01:26:46;;;;;;;0.93;0.60;;;-0.80;99.90;;;;;;6213376;28;20578;-69
2021/03/13 01:29:48;;;;;;;1.43;0.47;;;-0.80;99.90;;;;;;6229953;28;20231;-69
2021/03/13 01:32:52;;;;;;;0.57;0.27;;;-0.80;99.90;;;;;;6212462;28;20236;-69
2021/03/13 01:35:56;;;;;;;2.37;0.50;;;-0.80;99.90;;;;;;6252747;28;20227;-69
2021/03/13 01:39:00;;;;;;;1.33;0.77;;;-0.80;99.90;;;;;;6232748;28;20238;-69
2021/03/13 01:42:03;;;;;;;1.97;0.50;;;-0.80;99.90;;;;;;6228929;28;20215;-69
2021/03/13 01:45:06;;;;;;;1.37;0.40;;;-0.80;99.90;;;;;;6229549;28;20573;-69
2021/03/13 01:48:08;;;;;;;1.10;0.60;;;-0.80;99.90;;;;;;6246206;28;20210;-69
2021/03/13 01:51:11;;;;;;;3.47;0.50;;;-0.80;99.90;;;;;;6229888;28;20227;-69
2021/03/13 01:54:15;;;;;;;0.97;0.40;;;-0.80;99.90;;;;;;6246946;28;20204;-69
2021/03/13 01:57:18;;;;;;;0.87;0.53;;;-0.80;99.90;;;;;;6231029;28;20234;-69
2021/03/13 02:00:24;;;;;;;2.10;0.60;;;-0.80;99.90;;;;;;6245309;28;20230;-69
2021/03/13 02:03:30;;;;;;;0.60;0.37;;;-0.80;99.90;;;;;;6234185;28;20369;-69
2021/03/13 02:06:33;;;;;;;0.87;0.53;;;-0.80;99.90;;;;;;6234160;28;20227;-69
2021/03/13 02:09:47;;;;;;;1.67;0.40;;;-0.80;99.90;;;;;;6249599;28;20215;-69
2021/03/13 02:13:18;;;;;;;1.03;0.60;;;-0.80;99.90;;;;;;6233552;28;20235;-69
2021/03/13 02:16:32;;;;;;;0.67;0.40;;;-0.70;99.90;;;;;;6164593;28;20772;-69
2021/03/13 02:19:53;;;;;;;1.93;0.50;;;-0.70;99.90;;;;;;6234887;28;20228;-69
2021/03/13 02:22:59;;;;;;;0.60;0.40;;;-0.80;99.90;;;;;;6234757;28;20232;-69
2021/03/13 02:26:30;;;;;;;1.13;0.57;;;-0.80;99.90;;;;;;6234852;28;20255;-69
2021/03/13 02:30:04;;;;;;;1.57;0.50;;;-0.80;99.90;;;;;;6246470;28;20246;-69
2021/03/13 02:33:33;;;;;;;1.03;0.40;;;-0.80;99.90;;;;;;6240391;28;20723;-69
2021/03/13 02:36:54;;;;;;;0.77;0.40;;;-0.80;99.90;;;;;;6241408;28;20220;-69
2021/03/13 02:39:58;;;;;;;1.67;0.70;;;-0.80;99.90;;;;;;6241302;28;20576;-69
2021/03/13 02:43:04;;;;;;;1.17;0.50;;;-0.80;99.90;;;;;;6242055;28;20227;-69
2021/03/13 02:46:09;;;;;;;2.40;0.50;;;-0.80;99.90;;;;;;6258993;28;20321;-69
2021/03/13 02:49:13;;;;;;;0.40;0.40;;;-0.80;99.90;;;;;;6243180;28;20377;-69
2021/03/13 02:52:17;;;;;;;3.80;0.50;;;-0.80;99.90;;;;;;6241157;28;20267;-69
2021/03/13 02:55:22;;;;;;;1.07;0.37;;;-0.80;99.90;;;;;;6224449;28;20231;-69
2021/03/13 02:58:25;;;;;;;1.33;0.40;;;-0.90;99.90;;;;;;6224744;28;20264;-69
2021/03/13 03:01:29;;;;;;;0.63;0.40;;;-0.90;99.90;;;;;;6240811;28;20238;-69
2021/03/13 03:04:36;;;;;;;0.73;0.50;;;-0.90;99.90;;;;;;6237192;28;20218;-69
2021/03/13 03:07:39;;;;;;;1.90;0.50;;;-0.90;99.90;;;;;;6265026;28;20630;-69
2021/03/13 03:10:47;;;;;;;0.70;0.60;;;-0.90;99.90;;;;;;6264646;28;20229;-69
2021/03/13 03:13:52;;;;;;;0.30;0.30;;;-0.90;99.90;;;;;;6248099;28;20226;-69
2021/03/13 03:16:58;;;;;;;3.13;0.60;;;-0.90;99.90;;;;;;6248438;28;20218;-69
2021/03/13 03:20:10;;;;;;;6.73;0.70;;;-0.90;99.90;;;;;;6264795;28;20234;-69
2021/03/13 03:23:14;;;;;;;1.70;0.63;;;-0.90;99.90;;;;;;6264332;28;20313;-69
2021/03/13 03:26:18;;;;;;;2.30;0.60;;;-0.90;99.90;;;;;;6265370;28;20227;-69
2021/03/13 03:29:21;;;;;;;0.90;0.67;;;-0.90;99.90;;;;;;6282287;28;20250;-69
2021/03/13 03:32:23;;;;;;;1.93;0.40;;;-0.80;99.90;;;;;;6263899;28;20371;-69
2021/03/13 03:35:27;;;;;;;0.90;0.50;;;-0.80;99.90;;;;;;6282628;28;20699;-69
2021/03/13 03:38:29;;;;;;;0.37;0.30;;;-0.80;99.90;;;;;;6229077;28;20258;-69
2021/03/13 03:41:33;;;;;;;0.50;0.47;;;-0.80;99.90;;;;;;6238849;28;20705;-69
2021/03/13 03:44:45;;;;;;;1.40;0.60;;;-0.70;99.90;;;;;;6240338;28;20222;-69
2021/03/13 03:47:51;;;;;;;0.70;0.53;;;-0.70;99.90;;;;;;6240487;28;20622;-66
2021/03/13 03:50:55;;;;;;;0.57;0.43;;;-0.70;99.90;;;;;;6240307;28;20637;-66
2021/03/13 03:54:10;;;;;;;1.50;0.50;;;-0.70;99.90;;;;;;6238220;28;20306;-66
2021/03/13 03:57:13;;;;;;;1.47;0.47;;;-0.60;99.90;;;;;;6257556;28;20680;-66
2021/03/13 04:00:18;;;;;;;1.47;0.50;;;-0.60;99.90;;;;;;6256811;28;20215;-66
2021/03/13 04:03:29;;;;;;;0.97;0.50;;;-0.60;99.90;;;;;;6256986;28;20219;-66
2021/03/13 04:06:32;;;;;;;0.50;0.47;;;-0.60;99.90;;;;;;6256872;28;20223;-66
2021/03/13 04:09:36;;;;;;;1.03;0.60;;;-0.60;99.90;;;;;;6256904;28;20735;-66
2021/03/13 04:12:42;;;;;;;2.97;0.50;;;-0.60;99.90;;;;;;6256876;28;20317;-66
2021/03/13 04:15:46;;;;;;;1.03;0.50;;;-0.60;99.90;;;;;;6255626;28;20227;-66
2021/03/13 04:18:47;;;;;;;1.60;0.60;;;-0.60;99.90;;;;;;6256143;28;20310;-66
2021/03/13 04:21:49;;;;;;;2.43;0.70;;;-0.60;99.90;;;;;;6239095;28;20234;-66
2021/03/13 04:24:52;;;;;;;2.27;0.60;;;-0.70;99.90;;;;;;6237952;28;20304;-66
2021/03/13 04:27:54;;;;;;;0.87;0.40;;;-0.70;99.90;;;;;;6239473;28;20321;-66
2021/03/13 04:30:57;;;;;;;2.50;0.47;;;-0.70;99.90;;;;;;6256576;28;20238;-66
2021/03/13 04:34:01;;;;;;;2.03;0.70;;;-0.70;99.90;;;;;;6256580;28;20234;-66
2021/03/13 04:37:03;;;;;;;0.90;0.50;;;-0.60;99.90;;;;;;6237648;28;20267;-66
2021/03/13 04:40:07;;;;;;;3.27;0.73;;;-0.60;99.90;;;;;;6256762;28;20304;-66
2021/03/13 04:43:10;;;;;;;4.80;1.00;;;-0.60;99.90;;;;;;6239103;28;20329;-66
2021/03/13 04:46:13;;;;;;;0.80;0.50;;;-0.60;99.90;;;;;;6238675;28;20257;-66
2021/03/13 04:49:16;;;;;;;4.40;0.70;;;-0.50;99.90;;;;;;6256099;28;20775;-66
2021/03/13 04:52:18;;;;;;;2.40;0.40;;;-0.50;99.90;;;;;;6255138;28;20239;-66
2021/03/13 04:55:20;;;;;;;2.63;0.50;;;-0.50;99.90;;;;;;6255145;28;20626;-66
2021/03/13 04:58:22;;;;;;;0.40;0.40;;;-0.50;99.90;;;;;;6238794;28;20230;-66
2021/03/13 05:01:23;;;;;;;0.57;0.40;;;-0.50;99.90;;;;;;6236860;28;20718;-66
2021/03/13 05:04:25;;;;;;;1.73;0.43;;;-0.50;99.90;;;;;;6247158;28;20232;-66
2021/03/13 05:07:27;;;;;;;3.43;0.83;;;-0.40;99.90;;;;;;6261372;28;20249;-66
2021/03/13 05:10:29;;;;;;;1.60;0.50;;;-0.40;99.90;;;;;;6281440;28;20263;-66
2021/03/13 05:13:31;;;;;;;1.43;0.50;;;-0.40;99.90;;;;;;6281392;28;20670;-66
2021/03/13 05:16:33;;;;;;;0.80;0.40;;;-0.30;99.90;;;;;;6261702;28;20222;-66
2021/03/13 05:19:35;;;;;;;1.43;0.60;;;-0.30;99.90;;;;;;6262373;28;20237;-66
2021/03/13 05:22:36;;;;;;;3.07;0.63;;;-0.30;99.90;;;;;;6261804;28;20307;-66
2021/03/13 05:25:38;;;;;;;0.80;0.40;;;-0.20;99.90;;;;;;6262339;28;20729;-66
2021/03/13 05:28:40;;;;;;;2.37;0.50;;;-0.20;99.90;;;;;;6278964;28;20258;-66
2021/03/13 05:31:42;;;;;;;1.87;0.50;;;-0.10;99.90;;;;;;6278519;28;20252;-66
2021/03/13 05:34:44;;;;;;;0.60;0.40;;;-0.10;99.90;;;;;;6278006;28;20225;-66
2021/03/13 05:37:46;;;;;;;0.70;0.50;;;-0.10;99.90;;;;;;6269231;28;20227;-66
2021/03/13 05:40:49;;;;;;;0.37;0.37;;;0.00;99.90;;;;;;6259907;28;20246;-66
2021/03/13 05:43:53;;;;;;;0.40;0.30;;;0.00;99.90;;;;;;6257780;28;20231;-66
2021/03/13 05:46:56;;;;;;;1.43;0.73;;;0.00;99.90;;;;;;6259034;28;20696;-66
2021/03/13 05:50:08;;;;;;;3.13;0.70;;;0.10;99.90;;;;;;6259511;28;20230;-66
2021/03/13 05:53:11;;;;;;;1.40;0.60;;;0.20;99.90;;;;;;6257970;28;20640;-66
2021/03/13 05:56:13;;;;;;;1.20;0.40;;;0.30;99.90;;;;;;6258801;28;20423;-66
2021/03/13 05:59:15;;;;;;;3.27;0.43;;;0.30;99.90;;;;;;6257897;28;20223;-66
2021/03/13 06:02:20;;;;;;;2.30;0.60;;;0.40;99.90;;;;;;6258921;28;20261;-66
2021/03/13 06:05:23;;;;;;;2.10;0.50;;;0.50;99.90;;;;;;6259633;28;20231;-66
2021/03/13 06:08:24;;;;;;;0.83;0.40;;;0.60;99.90;;;;;;6256907;28;20231;-66
2021/03/13 06:11:26;;;;;;;1.37;0.50;;;0.60;99.90;;;;;;6258477;28;20722;-66
2021/03/13 06:14:28;;;;;;;0.87;0.50;;;0.70;99.90;;;;;;6239989;28;20596;-66
2021/03/13 06:17:51;;;;;;;1.70;0.43;;;0.80;99.90;;;;;;6259390;28;20227;-66
2021/03/13 06:20:53;;;;;;;0.50;0.50;;;0.90;99.90;;;;;;6240829;28;20224;-66
2021/03/13 06:24:09;;;;;;;3.50;0.53;;;1.00;99.90;;;;;;6240046;28;20595;-66
2021/03/13 06:27:15;;;;;;;1.53;0.80;;;1.10;99.90;;;;;;6256108;28;20744;-66
2021/03/13 06:30:18;;;;;;;1.07;0.43;;;1.20;99.90;;;;;;6233465;28;736849;-66
2021/03/13 06:33:31;;;;;;;1.00;0.50;;;1.30;99.90;;;;;;6258890;28;20630;-66
2021/03/13 06:36:33;;;;;;;0.97;0.40;;;1.30;99.90;;;;;;6257871;28;20237;-66
2021/03/13 06:39:39;;;;;;;1.13;0.47;;;1.40;99.90;;;;;;6259648;28;20287;-66
2021/03/13 06:42:41;;;;;;;0.93;0.60;;;1.50;99.90;;;;;;6258657;28;20269;-66
2021/03/13 06:46:08;;;;;;;1.90;0.60;;;1.50;99.90;;;;;;6258077;28;20227;-66
2021/03/13 06:49:15;;;;;;;1.50;0.47;;;1.60;99.90;;;;;;6240296;28;20241;-66
2021/03/13 06:52:20;;;;;;;0.60;0.60;;;1.60;99.90;;;;;;6261140;28;20290;-66
2021/03/13 06:55:24;;;;;;;1.60;0.67;;;1.70;99.90;;;;;;6259104;28;20245;-66
2021/03/13 06:58:30;;;;;;;1.50;0.80;;;1.80;99.90;;;;;;6257151;28;20249;-66
2021/03/13 07:01:32;;;;;;;2.70;0.47;;;1.90;99.90;;;;;;6243179;28;20235;-66
2021/03/13 07:04:42;;;;;;;0.70;0.47;;;2.00;99.90;;;;;;6258423;28;20696;-66
2021/03/13 07:07:44;;;;;;;1.70;0.70;;;2.10;99.90;;;;;;6258340;28;20300;-66
2021/03/13 07:10:46;;;;;;;1.57;0.53;;;2.30;99.90;;;;;;6240487;28;20361;-66
2021/03/13 07:13:56;;;;;;;1.47;0.67;;;2.40;99.90;;;;;;6256656;28;20703;-66
2021/03/13 07:16:58;;;;;;;1.90;0.70;;;2.60;99.90;;;;;;6259284;28;20314;-66
2021/03/13 07:20:00;;;;;;;0.90;0.40;;;2.80;99.90;;;;;;6258402;28;20235;-66
2021/03/13 07:23:04;;;;;;;0.80;0.50;;;2.90;99.90;;;;;;6258512;28;20230;-66
2021/03/13 07:26:07;;;;;;;3.50;0.70;;;3.10;99.90;;;;;;6258851;28;20231;-66
2021/03/13 07:29:17;;;;;;;0.90;0.60;;;3.30;99.90;;;;;;6258449;28;20594;-66
2021/03/13 07:32:23;;;;;;;0.70;0.60;;;3.50;99.90;;;;;;6240979;28;20235;-66
2021/03/13 07:35:28;;;;;;;1.03;0.70;;;3.60;99.90;;;;;;6258714;28;20227;-66
2021/03/13 07:38:32;;;;;;;1.63;0.67;;;3.80;99.90;;;;;;6256765;28;20649;-66
2021/03/13 07:41:37;;;;;;;0.83;0.70;;;4.00;99.90;;;;;;6257304;28;20358;-66
2021/03/13 07:44:40;;;;;;;1.07;0.57;;;4.20;99.90;;;;;;6257449;28;20264;-66
2021/03/13 07:47:42;;;;;;;2.53;1.10;;;4.40;99.90;;;;;;6240958;28;20229;-66
2021/03/13 07:50:48;;;;;;;0.60;0.60;;;4.60;99.90;;;;;;6256397;28;20227;-66
2021/03/13 07:53:51;;;;;;;2.30;1.03;;;4.80;99.90;;;;;;6258204;28;20248;-66
2021/03/13 07:56:53;;;;;;;3.23;0.90;;;5.00;99.90;;;;;;6255550;28;20317;-66
2021/03/13 07:59:55;;;;;;;3.17;0.80;;;5.20;99.90;;;;;;6237511;28;20282;-66
2021/03/13 08:02:57;;;;;;;1.83;1.00;;;5.50;99.90;;;;;;6256973;28;20718;-66
2021/03/13 08:06:10;;;;;;;0.97;0.80;;;5.80;99.90;;;;;;6279191;28;20715;-66
2021/03/13 08:09:24;;;;;;;1.93;0.90;;;6.00;99.90;;;;;;6263175;28;20218;-66
2021/03/13 08:12:42;;;;;;;2.90;1.00;;;6.20;99.90;;;;;;6263078;28;20349;-66
2021/03/13 08:15:45;;;;;;;1.10;0.83;;;6.60;99.90;;;;;;6263991;28;20225;-66
2021/03/13 08:18:51;;;;;;;0.70;0.67;;;6.80;99.90;;;;;;6281010;28;20246;-66
2021/03/13 08:22:12;;;;;;;1.60;1.20;;;7.10;99.90;;;;;;6280009;28;20715;-66
2021/03/13 08:25:27;;;;;;;1.33;1.03;;;7.30;99.90;;;;;;6281266;28;20688;-66
2021/03/13 08:28:47;;;;;;;1.73;0.70;;;7.60;99.90;;;;;;6280540;28;20229;-66
2021/03/13 08:31:49;;;;;;;2.20;0.83;;;7.80;99.90;;;;;;6279839;28;20250;-66
2021/03/13 08:34:51;;;;;;;3.33;0.97;;;8.00;99.90;;;;;;6260049;28;20225;-66
2021/03/13 08:37:53;;;;;;;1.40;0.80;;;8.20;99.90;;;;;;6257049;28;20230;-66
2021/03/13 08:40:55;;;;;;;0.83;0.60;;;8.30;99.90;;;;;;6256049;28;20217;-67
2021/03/13 08:44:00;;;;;;;1.67;0.80;;;8.50;99.90;;;;;;6256284;28;20259;-67
2021/03/13 08:47:11;;;;;;;0.70;0.60;;;8.60;99.90;;;;;;6256998;28;20304;-67
2021/03/13 08:50:45;;;;;;;0.93;0.70;;;8.70;99.90;;;;;;6256485;28;20694;-67
2021/03/13 08:53:46;;;;;;;0.63;0.63;;;8.90;99.90;;;;;;6240584;28;20248;-67
2021/03/13 08:56:52;;;;;;;1.63;0.70;;;9.00;99.90;;;;;;6256054;28;20258;-67
2021/03/13 08:59:54;;;;;;;1.13;0.63;;;9.20;99.00;;;;;;6255783;28;20246;-67
2021/03/13 09:03:02;;;;;;;1.33;0.70;;;9.30;96.80;;;;;;6256072;28;20236;-67
2021/03/13 09:06:04;;;;;;;0.80;0.80;;;9.50;93.90;;;;;;6278342;28;20342;-67
2021/03/13 09:09:16;;;;;;;1.50;0.87;;;9.60;93.30;;;;;;6262144;28;20209;-67
2021/03/13 09:12:21;;;;;;;2.10;0.60;;;9.80;92.10;;;;;;6261738;28;20324;-67
2021/03/13 09:15:23;;;;;;;1.27;1.00;;;9.90;91.50;;;;;;6279860;28;20224;-67
2021/03/13 09:18:25;;;;;;;1.10;0.80;;;9.90;88.30;;;;;;6280185;28;20613;-67
2021/03/13 09:21:47;;;;;;;1.70;0.70;;;10.00;90.20;;;;;;6280149;28;20226;-67
2021/03/13 09:25:01;;;;;;;1.30;0.80;;;10.10;89.50;;;;;;6280259;28;20288;-67
2021/03/13 09:28:03;;;;;;;3.07;0.90;;;10.20;87.70;;;;;;6279343;28;20260;-67
2021/03/13 09:31:12;;;;;;;1.80;0.80;;;10.30;87.20;;;;;;6279835;28;20287;-67
2021/03/13 09:34:16;;;;;;;1.20;1.00;;;10.40;84.30;;;;;;6261068;28;20352;-67
2021/03/13 09:37:36;;;;;;;1.40;1.00;;;10.50;84.50;;;;;;6268508;28;20230;-67
2021/03/13 09:40:38;;;;;;;3.27;0.83;;;10.60;79.80;;;;;;6253920;28;20229;-67
2021/03/13 09:43:40;;;;;;;1.27;1.00;;;10.70;78.80;;;;;;6238080;28;20239;-67
2021/03/13 09:46:42;;;;;;;1.37;0.83;;;10.70;78.10;;;;;;6254719;28;20236;-67
2021/03/13 09:49:46;;;;;;;3.30;0.87;;;10.70;78.10;;;;;;6254899;28;20229;-67
2021/03/13 09:52:50;;;;;;;1.63;0.73;;;10.80;75.10;;;;;;6256552;28;20602;-67
2021/03/13 09:55:52;;;;;;;3.47;1.10;;;10.90;77.00;;;;;;6254790;28;20229;-67
2021/03/13 09:59:00;;;;;;;1.10;0.80;;;11.00;74.00;;;;;;6237435;28;20239;-67
2021/03/13 10:02:02;;;;;;;1.00;0.77;;;11.10;72.50;;;;;;6259069;28;20230;-67
2021/03/13 10:05:05;;;;;;;1.27;0.90;;;11.20;74.60;;;;;;6259494;28;20577;-67
2021/03/13 10:08:14;;;;;;;2.20;0.80;;;11.30;70.00;;;;;;6254761;28;20635;-67
2021/03/13 10:11:16;;;;;;;2.47;0.87;;;11.50;69.20;;;;;;6254770;28;20223;-67
2021/03/13 10:14:21;;;;;;;2.10;0.77;;;11.70;65.60;;;;;;6237103;28;20317;-67
2021/03/13 10:17:23;;;;;;;2.00;0.90;;;11.80;63.80;;;;;;6254958;28;20377;-67
2021/03/13 10:20:47;;;;;;;2.90;0.77;;;12.10;64.70;;;;;;6255055;28;20308;-67
2021/03/13 10:23:58;;;;;;;1.17;0.80;;;12.40;63.00;;;;;;6249907;28;20232;-67
2021/03/13 10:27:06;;;;;;;2.00;0.73;;;12.70;59.80;;;;;;6258941;28;20237;-67
2021/03/13 10:30:09;;;;;;;1.50;0.80;;;12.90;59.80;;;;;;6257942;28;20727;-67
2021/03/13 10:33:12;;;;;;;1.53;0.80;;;13.10;59.30;;;;;;6258391;28;20244;-67
2021/03/13 10:36:15;;;;;;;0.87;0.60;;;13.20;59.70;;;;;;6234660;28;20230;-65
2021/03/13 10:39:18;;;;;;;1.30;0.70;;;13.40;59.40;;;;;;6258861;28;20233;-65
2021/03/13 10:42:23;;;;;;;1.00;0.80;;;13.60;59.20;;;;;;6224100;28;20294;-65
2021/03/13 10:45:25;;;;;;;0.70;0.60;;;13.60;57.90;;;;;;6259069;28;20556;-65
2021/03/13 10:48:38;;;;;;;0.93;0.80;;;13.60;57.40;;;;;;6258341;28;20239;-65
2021/03/13 10:51:45;;;;;;;1.20;1.00;;;13.80;57.90;;;;;;6258406;28;20240;-65
2021/03/13 10:54:47;;;;;;;1.00;0.90;;;14.20;56.70;;;;;;6240518;28;20266;-66
2021/03/13 10:58:09;;;;;;;1.23;0.90;;;14.60;53.60;;;;;;6258184;28;20328;-65
2021/03/13 11:01:11;;;;;;;2.13;0.90;;;14.70;53.90;;;;;;6258342;28;20247;-65
2021/03/13 11:04:14;;;;;;;2.33;1.03;;;14.80;52.60;;;;;;6266083;28;20764;-65
2021/03/13 11:07:16;;;;;;;1.70;0.80;;;14.80;53.70;;;;;;6266613;28;20229;-65
2021/03/13 11:10:18;;;;;;;0.97;0.70;;;15.00;54.20;;;;;;6264468;28;20228;-65
2021/03/13 11:13:20;;;;;;;1.73;1.13;;;15.40;52.60;;;;;;6281266;28;20763;-65
2021/03/13 11:16:23;;;;;;;1.80;0.70;;;15.60;52.10;;;;;;6266019;28;20689;-65
2021/03/13 11:19:26;;;;;;;0.70;0.63;;;15.80;50.70;;;;;;6281646;28;20793;-65
2021/03/13 11:22:28;;;;;;;1.20;0.80;;;16.00;51.20;;;;;;6282114;28;20729;-65
2021/03/13 11:25:29;;;;;;;4.83;0.90;;;16.20;50.90;;;;;;6282063;28;20819;-65
2021/03/13 11:28:31;;;;;;;1.40;0.80;;;16.20;49.50;;;;;;6282447;28;20248;-65
2021/03/13 11:31:33;;;;;;;1.07;0.70;;;16.50;48.50;;;;;;6282021;28;20583;-65
2021/03/13 11:34:35;;;;;;;1.20;0.80;;;16.70;47.00;;;;;;6279578;28;20234;-65
2021/03/13 11:37:38;;;;;;;0.90;0.70;;;16.80;46.10;;;;;;6269614;28;20376;-65
2021/03/13 11:40:40;;;;;;;1.73;0.70;;;16.70;45.20;;;;;;6257169;28;20492;-65
2021/03/13 11:43:42;;;;;;;2.53;0.90;;;16.80;44.30;;;;;;6257801;28;20594;-65
2021/03/13 11:46:44;;;;;;;1.63;0.80;;;16.80;44.30;;;;;;6257750;28;20229;-65
2021/03/13 11:49:46;;;;;;;2.23;0.80;;;16.90;42.70;;;;;;6257742;28;20384;-65
2021/03/13 11:52:48;;;;;;;1.87;0.97;;;16.80;44.10;;;;;;6257657;28;20368;-65
2021/03/13 11:55:50;;;;;;;1.40;0.80;;;16.80;44.60;;;;;;6239415;28;20597;-65
2021/03/13 11:58:52;;;;;;;0.67;0.60;;;16.70;43.80;;;;;;6257245;28;20223;-65
2021/03/13 12:01:54;;;;;;;1.13;0.73;;;16.70;44.40;;;;;;6257801;28;20296;-65
2021/03/13 12:04:56;;;;;;;0.80;0.67;;;16.70;44.60;;;;;;6256361;28;20265;-65
2021/03/13 12:07:58;;;;;;;1.10;0.80;;;16.70;44.40;;;;;;6257029;28;20633;-65
2021/03/13 12:11:00;;;;;;;1.17;0.70;;;16.80;42.70;;;;;;6257020;28;20242;-65
2021/03/13 12:14:01;;;;;;;0.50;0.50;;;16.70;43.80;;;;;;6257420;28;20231;-65
2021/03/13 12:17:07;;;;;;;1.03;0.60;;;16.70;43.50;;;;;;6256851;28;20226;-65
2021/03/13 12:20:09;;;;;;;1.00;0.80;;;16.70;43.10;;;;;;6258453;28;20227;-65
2021/03/13 12:23:11;;;;;;;1.30;0.90;;;16.50;41.80;;;;;;6240011;28;20784;-65
2021/03/13 12:26:13;;;;;;;1.10;0.60;;;16.30;42.70;;;;;;6256428;28;20285;-65
2021/03/13 12:29:15;;;;;;;1.23;0.80;;;16.30;43.10;;;;;;6255226;28;20718;-65
2021/03/13 12:32:19;;;;;;;1.20;0.60;;;16.70;42.40;;;;;;6254605;28;20253;-65
2021/03/13 12:35:21;;;;;;;0.70;0.70;;;17.10;41.90;;;;;;6239385;28;20250;-65
2021/03/13 12:38:22;;;;;;;4.53;1.00;;;17.30;42.80;;;;;;6256810;28;20226;-65
2021/03/13 12:41:36;;;;;;;0.77;0.77;;;17.30;42.90;;;;;;6258941;28;20254;-65
2021/03/13 12:44:38;;;;;;;1.77;1.00;;;16.90;45.00;;;;;;6256962;28;20215;-65
2021/03/13 12:47:40;;;;;;;1.63;1.13;;;16.50;45.70;;;;;;6239396;28;20313;-65
2021/03/13 12:50:43;;;;;;;1.37;1.03;;;16.50;47.40;;;;;;6257026;28;20229;-65
2021/03/13 12:53:46;;;;;;;2.93;1.40;;;16.80;47.70;;;;;;6254501;28;20230;-66
2021/03/13 12:56:48;;;;;;;1.53;1.10;;;17.00;48.70;;;;;;6255956;28;20314;-65
2021/03/13 12:59:50;;;;;;;1.40;1.30;;;17.30;49.30;;;;;;6239089;28;20223;-65
2021/03/13 13:02:51;;;;;;;1.90;1.60;;;17.70;48.40;;;;;;6255901;28;20226;-66
2021/03/13 13:05:53;;;;;;;1.70;1.60;;;17.80;49.20;;;;;;6278593;28;20234;-66
2021/03/13 13:08:55;;;;;;;2.93;1.53;;;17.60;49.20;;;;;;6281287;28;20703;-66
2021/03/13 13:11:57;;;;;;;1.73;1.40;;;17.60;49.90;;;;;;6280187;28;20364;-66
2021/03/13 13:14:59;;;;;;;2.50;1.30;;;17.60;50.30;;;;;;6262404;28;20336;-66
2021/03/13 13:18:01;;;;;;;4.10;1.87;;;17.50;49.80;;;;;;6280459;28;20229;-65
2021/03/13 13:21:03;;;;;;;4.67;1.67;;;17.40;49.50;;;;;;6279898;28;20237;-66
2021/03/13 13:24:05;;;;;;;1.57;1.20;;;17.30;50.40;;;;;;6245504;28;20195;-65
2021/03/13 13:27:07;;;;;;;1.63;1.50;;;17.50;50.50;;;;;;6281856;28;20619;-66
2021/03/13 13:30:15;;;;;;;2.83;1.27;;;17.80;49.70;;;;;;6279841;28;20309;-65
2021/03/13 13:33:16;;;;;;;2.03;1.50;;;17.90;50.10;;;;;;6279350;28;20317;-65
2021/03/13 13:36:19;;;;;;;1.67;1.57;;;18.00;48.90;;;;;;6278585;28;20220;-65
2021/03/13 13:39:21;;;;;;;2.13;1.70;;;18.10;49.30;;;;;;6237283;28;20295;-65
2021/03/13 13:42:23;;;;;;;2.30;1.37;;;18.50;49.10;;;;;;6255066;28;20230;-65
2021/03/13 13:45:26;;;;;;;1.87;1.37;;;18.50;48.90;;;;;;6256358;28;20692;-65
2021/03/13 13:48:28;;;;;;;1.83;1.70;;;18.50;48.80;;;;;;6255459;28;20766;-65
2021/03/13 13:51:29;;;;;;;1.83;1.70;;;18.10;48.60;;;;;;6255728;28;20300;-65
2021/03/13 13:54:32;;;;;;;2.00;1.53;;;18.00;48.70;;;;;;6254397;28;20230;-65
2021/03/13 13:57:34;;;;;;;1.97;1.60;;;18.00;49.10;;;;;;6257049;28;20230;-65
2021/03/13 14:00:36;;;;;;;1.93;1.50;;;18.10;48.10;;;;;;6259871;28;20253;-65
2021/03/13 14:03:38;;;;;;;3.30;1.80;;;18.10;48.60;;;;;;6243741;28;20224;-65
2021/03/13 14:06:40;;;;;;;1.83;1.63;;;18.00;49.30;;;;;;6241729;28;20285;-65
2021/03/13 14:09:42;;;;;;;1.63;1.53;;;17.70;49.80;;;;;;6260312;28;20604;-65
2021/03/13 14:12:44;;;;;;;1.87;1.47;;;17.80;49.60;;;;;;6259316;28;20668;-65
2021/03/13 14:15:46;;;;;;;1.93;1.27;;;17.50;49.00;;;;;;6259469;28;20293;-65
2021/03/13 14:18:50;;;;;;;1.80;1.40;;;17.20;49.90;;;;;;6259825;28;20223;-65
2021/03/13 14:21:52;;;;;;;1.47;1.37;;;16.70;50.70;;;;;;6259254;28;20234;-65
2021/03/13 14:24:55;;;;;;;1.87;1.40;;;16.40;52.40;;;;;;6259821;28;20242;-65
2021/03/13 14:27:58;;;;;;;1.80;1.50;;;16.10;52.00;;;;;;6259022;28;20589;-65
2021/03/13 14:31:00;;;;;;;2.20;1.90;;;15.90;53.00;;;;;;6259492;28;20298;-65
2021/03/13 14:34:02;;;;;;;4.37;1.77;;;15.40;53.50;;;;;;6259847;28;20326;-65
2021/03/13 14:37:04;;;;;;;2.17;1.60;;;15.10;54.70;;;;;;6241658;28;20245;-65
2021/03/13 14:40:06;;;;;;;3.40;1.80;;;14.90;55.40;;;;;;6258533;28;20271;-65
2021/03/13 14:43:08;;;;;;;2.33;1.63;;;14.70;55.80;;;;;;6257769;28;20253;-66
2021/03/13 14:46:10;;;;;;;2.73;2.00;;;14.50;56.30;;;;;;6258799;28;20320;-65
2021/03/13 14:49:12;;;;;;;4.37;1.60;;;14.30;57.10;;;;;;6258897;28;20264;-65
2021/03/13 14:52:16;;;;;;;2.40;1.90;;;14.10;57.30;;;;;;6258803;28;20234;-65
2021/03/13 14:55:19;;;;;;;3.03;1.90;;;14.00;57.10;;;;;;6258589;28;20318;-65
2021/03/13 14:58:21;;;;;;;2.17;1.70;;;13.80;57.80;;;;;;6241032;28;20234;-65
2021/03/13 15:01:23;;;;;;;2.30;1.80;;;13.60;58.40;;;;;;6240091;28;20241;-65
2021/03/13 15:04:25;;;;;;;2.33;1.63;;;13.60;59.20;;;;;;6268399;28;20237;-65
2021/03/13 15:07:27;;;;;;;1.90;1.57;;;13.50;59.40;;;;;;6248252;28;20224;-65
2021/03/13 15:10:29;;;;;;;2.20;1.67;;;13.50;60.10;;;;;;6282892;28;20230;-65
2021/03/13 15:13:32;;;;;;;3.17;1.90;;;13.40;60.20;;;;;;6282257;28;20240;-65
2021/03/13 15:16:34;;;;;;;2.70;1.73;;;13.30;60.60;;;;;;6282946;28;20225;-65
2021/03/13 15:19:36;;;;;;;2.93;1.97;;;13.20;61.60;;;;;;6283184;28;20695;-65
2021/03/13 15:22:38;;;;;;;3.17;1.83;;;13.10;61.70;;;;;;6282315;28;20639;-65
2021/03/13 15:25:44;;;;;;;4.70;2.00;;;13.10;62.30;;;;;;6283062;28;20738;-65
2021/03/13 15:28:46;;;;;;;1.67;1.53;;;13.10;62.70;;;;;;6282057;28;20228;-65
2021/03/13 15:31:48;;;;;;;3.13;2.03;;;13.00;63.40;;;;;;6264651;28;20228;-65
2021/03/13 15:34:53;;;;;;;2.63;2.20;;;13.00;65.00;;;;;;6263504;28;20235;-65
2021/03/13 15:37:57;;;;;;;2.00;1.80;;;12.90;65.10;;;;;;6250303;28;20248;-65
2021/03/13 15:41:02;;;;;;;2.27;2.07;;;12.90;66.20;;;;;;6240612;28;20237;-65
2021/03/13 15:44:06;;;;;;;2.10;1.90;;;12.90;66.10;;;;;;6240280;28;20236;-65
2021/03/13 15:47:09;;;;;;;2.30;2.10;;;12.80;67.10;;;;;;6240249;28;20346;-65
2021/03/13 15:50:16;;;;;;;3.10;2.47;;;12.80;68.20;;;;;;6241125;28;20225;-65
2021/03/13 15:53:18;;;;;;;2.43;2.20;;;12.70;69.50;;;;;;6257305;28;20259;-65
2021/03/13 15:56:20;;;;;;;2.57;2.20;;;12.60;69.90;;;;;;6239785;28;20601;-65
2021/03/13 15:59:22;;;;;;;3.33;2.20;;;12.50;70.70;;;;;;6238664;28;20582;-65
2021/03/13 16:02:26;;;;;;;2.90;2.60;;;12.50;71.70;;;;;;6240041;28;20229;-65